首页
METAR-TAF:

METAR-TAF

机场 :

武里南市, 泰国

纬度: 15-13-46N, 经度: 103-15-04E, 海拔: 180米

当前天气观测

该预报发布于47分钟前的02:00 UTC
风速6节,风向西转西北,在西转西南东北之间变化
温度 27°C
湿度 79%
气压 1015 hPa
能見度: 6000

METAR: VTUO 170200Z 30006KT 250V040 6000 NSC 27/23 Q1015 NOSIG

时间: 09:47 (02:47 UTC)

预报

该预报发布于9小时和47分钟前的17:00 UTC
预报有效从16日的 18点(UTC)到 17日的 18点(UTC)
风速5节,风向
能見度: 7000
成为
从 16日的 20点(UTC)到 16日的 22点(UTC)
能見度: 5000
轻雾
成为
从 17日的 01点(UTC)到 17日的 03点(UTC)
能見度: 6000

TAF: VTUO 161700Z 1618/1718 17005KT 7000 NSC BECMG 1620/1622 5000 BR BECMG 1701/1703 6000 NSW

超过4000个机场的气象观测和天气预报(METAR&TAF报告)。

可查询的气象台以黄色和红色小点在地图上表示。

将鼠标移到小点上方,可查看气象台名称。

然后点击查看天气观测和预报。

如需切换地图:点击带黑十字的绿色按钮放大地图;点击带横线的绿色按钮缩小地图;或者点击绿色箭头查看邻近地区的地图。


METAR-TAF: